sensor_id;sensor_type;location;lat;lon;timestamp;P1;durP1;ratioP1;P2;durP2;ratioP2
59374;SDS011;45172;55.006;73.460;2022-11-15T00:01:07;6.80;;;3.72;;
59374;SDS011;45172;55.006;73.460;2022-11-15T00:03:32;8.80;;;3.53;;
59374;SDS011;45172;55.006;73.460;2022-11-15T00:06:04;5.32;;;3.05;;
59374;SDS011;45172;55.006;73.460;2022-11-15T00:08:35;5.85;;;3.88;;
59374;SDS011;45172;55.006;73.460;2022-11-15T00:11:02;9.85;;;3.63;;
59374;SDS011;45172;55.006;73.460;2022-11-15T00:13:33;5.78;;;3.20;;
59374;SDS011;45172;55.006;73.460;2022-11-15T00:15:59;5.72;;;3.22;;
59374;SDS011;45172;55.006;73.460;2022-11-15T00:18:30;5.68;;;3.20;;
59374;SDS011;45172;55.006;73.460;2022-11-15T00:21:01;6.25;;;3.70;;
59374;SDS011;45172;55.006;73.460;2022-11-15T00:23:27;6.78;;;3.13;;
59374;SDS011;45172;55.006;73.460;2022-11-15T00:25:57;3.97;;;3.13;;
59374;SDS011;45172;55.006;73.460;2022-11-15T00:28:23;4.95;;;3.08;;
59374;SDS011;45172;55.006;73.460;2022-11-15T00:30:49;3.15;;;2.55;;
59374;SDS011;45172;55.006;73.460;2022-11-15T00:33:25;7.93;;;3.80;;
59374;SDS011;45172;55.006;73.460;2022-11-15T00:35:51;3.85;;;2.40;;
59374;SDS011;45172;55.006;73.460;2022-11-15T00:38:24;6.50;;;3.42;;
59374;SDS011;45172;55.006;73.460;2022-11-15T00:40:49;3.42;;;2.80;;
59374;SDS011;45172;55.006;73.460;2022-11-15T00:43:15;4.00;;;3.05;;
59374;SDS011;45172;55.006;73.460;2022-11-15T00:45:46;3.88;;;2.88;;
59374;SDS011;45172;55.006;73.460;2022-11-15T00:48:17;6.40;;;3.00;;
59374;SDS011;45172;55.006;73.460;2022-11-15T00:50:43;3.65;;;2.25;;
59374;SDS011;45172;55.006;73.460;2022-11-15T00:53:09;3.30;;;2.72;;
59374;SDS011;45172;55.006;73.460;2022-11-15T00:55:35;4.40;;;2.75;;
59374;SDS011;45172;55.006;73.460;2022-11-15T00:58:00;3.55;;;2.60;;
59374;SDS011;45172;55.006;73.460;2022-11-15T01:00:37;4.90;;;2.45;;
59374;SDS011;45172;55.006;73.460;2022-11-15T01:03:13;2.90;;;2.60;;
59374;SDS011;45172;55.006;73.460;2022-11-15T01:05:39;5.70;;;3.42;;
59374;SDS011;45172;55.006;73.460;2022-11-15T01:08:05;5.57;;;3.78;;
59374;SDS011;45172;55.006;73.460;2022-11-15T01:10:31;4.68;;;3.47;;
59374;SDS011;45172;55.006;73.460;2022-11-15T01:12:57;4.88;;;3.33;;
59374;SDS011;45172;55.006;73.460;2022-11-15T01:15:22;3.35;;;2.55;;
59374;SDS011;45172;55.006;73.460;2022-11-15T01:17:59;4.80;;;2.47;;
59374;SDS011;45172;55.006;73.460;2022-11-15T01:20:25;3.75;;;3.08;;
59374;SDS011;45172;55.006;73.460;2022-11-15T01:22:51;4.85;;;2.88;;
59374;SDS011;45172;55.006;73.460;2022-11-15T01:25:16;3.28;;;2.35;;
59374;SDS011;45172;55.006;73.460;2022-11-15T01:27:42;3.67;;;2.60;;
59374;SDS011;45172;55.006;73.460;2022-11-15T01:30:18;3.40;;;2.55;;
59374;SDS011;45172;55.006;73.460;2022-11-15T01:32:53;3.53;;;2.63;;
59374;SDS011;45172;55.006;73.460;2022-11-15T01:35:19;5.57;;;3.80;;
59374;SDS011;45172;55.006;73.460;2022-11-15T01:37:46;6.95;;;4.15;;
59374;SDS011;45172;55.006;73.460;2022-11-15T01:40:12;7.20;;;4.28;;
59374;SDS011;45172;55.006;73.460;2022-11-15T01:42:48;14.00;;;4.63;;
59374;SDS011;45172;55.006;73.460;2022-11-15T01:45:14;28.40;;;10.35;;
59374;SDS011;45172;55.006;73.460;2022-11-15T01:47:41;9.85;;;6.20;;
59374;SDS011;45172;55.006;73.460;2022-11-15T01:50:14;6.93;;;4.65;;
59374;SDS011;45172;55.006;73.460;2022-11-15T01:52:45;6.35;;;3.72;;
59374;SDS011;45172;55.006;73.460;2022-11-15T01:55:16;10.63;;;5.05;;
59374;SDS011;45172;55.006;73.460;2022-11-15T01:57:44;6.80;;;4.07;;
59374;SDS011;45172;55.006;73.460;2022-11-15T02:00:12;10.65;;;5.80;;
59374;SDS011;45172;55.006;73.460;2022-11-15T02:02:49;5.25;;;4.20;;
59374;SDS011;45172;55.006;73.460;2022-11-15T02:05:21;6.63;;;4.60;;
59374;SDS011;45172;55.006;73.460;2022-11-15T02:07:53;6.13;;;4.63;;
59374;SDS011;45172;55.006;73.460;2022-11-15T02:10:24;6.20;;;4.05;;
59374;SDS011;45172;55.006;73.460;2022-11-15T02:12:50;7.72;;;4.70;;
59374;SDS011;45172;55.006;73.460;2022-11-15T02:15:16;6.10;;;4.15;;
59374;SDS011;45172;55.006;73.460;2022-11-15T02:31:14;13.40;;;7.88;;
59374;SDS011;45172;55.006;73.460;2022-11-15T02:38:40;20.25;;;14.25;;
59374;SDS011;45172;55.006;73.460;2022-11-15T02:41:10;20.13;;;12.40;;
59374;SDS011;45172;55.006;73.460;2022-11-15T02:49:28;25.75;;;17.70;;
59374;SDS011;45172;55.006;73.460;2022-11-15T02:51:54;19.33;;;12.35;;
59374;SDS011;45172;55.006;73.460;2022-11-15T02:54:22;19.55;;;13.65;;
59374;SDS011;45172;55.006;73.460;2022-11-15T02:57:06;36.17;;;16.50;;
59374;SDS011;45172;55.006;73.460;2022-11-15T03:04:56;23.90;;;13.98;;
59374;SDS011;45172;55.006;73.460;2022-11-15T03:12:43;21.52;;;12.98;;
59374;SDS011;45172;55.006;73.460;2022-11-15T03:15:13;16.98;;;10.10;;
59374;SDS011;45172;55.006;73.460;2022-11-15T03:17:47;19.67;;;12.13;;
59374;SDS011;45172;55.006;73.460;2022-11-15T03:20:14;18.33;;;11.73;;
59374;SDS011;45172;55.006;73.460;2022-11-15T03:22:42;26.85;;;14.98;;
59374;SDS011;45172;55.006;73.460;2022-11-15T03:25:16;24.13;;;13.73;;
59374;SDS011;45172;55.006;73.460;2022-11-15T03:27:53;31.05;;;14.52;;
59374;SDS011;45172;55.006;73.460;2022-11-15T03:30:26;20.95;;;11.77;;
59374;SDS011;45172;55.006;73.460;2022-11-15T03:32:58;16.90;;;9.70;;
59374;SDS011;45172;55.006;73.460;2022-11-15T03:35:27;17.70;;;10.40;;
59374;SDS011;45172;55.006;73.460;2022-11-15T03:40:36;22.92;;;12.85;;
59374;SDS011;45172;55.006;73.460;2022-11-15T03:43:10;22.30;;;13.93;;
59374;SDS011;45172;55.006;73.460;2022-11-15T03:45:43;13.85;;;9.55;;
59374;SDS011;45172;55.006;73.460;2022-11-15T03:48:18;19.15;;;11.25;;
59374;SDS011;45172;55.006;73.460;2022-11-15T03:50:45;16.27;;;11.05;;
59374;SDS011;45172;55.006;73.460;2022-11-15T03:53:16;13.68;;;10.30;;
59374;SDS011;45172;55.006;73.460;2022-11-15T03:55:42;14.05;;;8.50;;
59374;SDS011;45172;55.006;73.460;2022-11-15T03:58:18;11.77;;;9.10;;
59374;SDS011;45172;55.006;73.460;2022-11-15T04:00:44;15.85;;;10.35;;
59374;SDS011;45172;55.006;73.460;2022-11-15T04:03:20;13.52;;;8.13;;
59374;SDS011;45172;55.006;73.460;2022-11-15T04:05:46;16.95;;;10.25;;
59374;SDS011;45172;55.006;73.460;2022-11-15T04:08:12;11.65;;;8.25;;
59374;SDS011;45172;55.006;73.460;2022-11-15T04:10:38;16.10;;;9.63;;
59374;SDS011;45172;55.006;73.460;2022-11-15T04:13:04;17.77;;;10.95;;
59374;SDS011;45172;55.006;73.460;2022-11-15T04:15:29;20.70;;;12.13;;
59374;SDS011;45172;55.006;73.460;2022-11-15T04:17:56;16.35;;;10.52;;
59374;SDS011;45172;55.006;73.460;2022-11-15T04:20:23;14.95;;;8.93;;
59374;SDS011;45172;55.006;73.460;2022-11-15T04:23:14;16.42;;;10.18;;
59374;SDS011;45172;55.006;73.460;2022-11-15T04:26:18;18.42;;;9.75;;
59374;SDS011;45172;55.006;73.460;2022-11-15T04:28:46;12.40;;;6.88;;
59374;SDS011;45172;55.006;73.460;2022-11-15T04:31:41;8.45;;;6.43;;
59374;SDS011;45172;55.006;73.460;2022-11-15T04:34:12;11.27;;;6.60;;
59374;SDS011;45172;55.006;73.460;2022-11-15T04:36:37;15.43;;;8.65;;
59374;SDS011;45172;55.006;73.460;2022-11-15T04:39:26;10.43;;;7.50;;
59374;SDS011;45172;55.006;73.460;2022-11-15T04:41:52;13.85;;;8.68;;
59374;SDS011;45172;55.006;73.460;2022-11-15T04:44:23;11.95;;;8.25;;
59374;SDS011;45172;55.006;73.460;2022-11-15T04:46:49;9.57;;;7.10;;
59374;SDS011;45172;55.006;73.460;2022-11-15T04:49:14;8.20;;;6.40;;
59374;SDS011;45172;55.006;73.460;2022-11-15T04:51:40;8.02;;;5.22;;
59374;SDS011;45172;55.006;73.460;2022-11-15T04:54:06;6.75;;;4.40;;
59374;SDS011;45172;55.006;73.460;2022-11-15T04:56:42;4.13;;;3.35;;
59374;SDS011;45172;55.006;73.460;2022-11-15T04:59:14;4.25;;;3.03;;
59374;SDS011;45172;55.006;73.460;2022-11-15T05:01:40;5.20;;;3.83;;
59374;SDS011;45172;55.006;73.460;2022-11-15T05:04:06;7.40;;;3.45;;
59374;SDS011;45172;55.006;73.460;2022-11-15T05:06:45;6.10;;;2.78;;
59374;SDS011;45172;55.006;73.460;2022-11-15T05:09:11;4.72;;;3.83;;
59374;SDS011;45172;55.006;73.460;2022-11-15T05:11:38;9.80;;;4.40;;
59374;SDS011;45172;55.006;73.460;2022-11-15T05:14:04;4.55;;;3.70;;
59374;SDS011;45172;55.006;73.460;2022-11-15T05:16:30;7.82;;;3.92;;
59374;SDS011;45172;55.006;73.460;2022-11-15T05:19:02;7.15;;;3.15;;
59374;SDS011;45172;55.006;73.460;2022-11-15T05:21:28;3.50;;;1.52;;
59374;SDS011;45172;55.006;73.460;2022-11-15T05:23:54;4.05;;;2.67;;
59374;SDS011;45172;55.006;73.460;2022-11-15T05:26:29;9.27;;;3.67;;
59374;SDS011;45172;55.006;73.460;2022-11-15T05:29:05;7.65;;;3.50;;
59374;SDS011;45172;55.006;73.460;2022-11-15T05:31:31;7.15;;;3.10;;
59374;SDS011;45172;55.006;73.460;2022-11-15T05:33:57;5.78;;;3.63;;
59374;SDS011;45172;55.006;73.460;2022-11-15T05:38:52;9.85;;;5.13;;
59374;SDS011;45172;55.006;73.460;2022-11-15T05:41:19;6.32;;;3.70;;
59374;SDS011;45172;55.006;73.460;2022-11-15T05:43:47;6.15;;;3.28;;
59374;SDS011;45172;55.006;73.460;2022-11-15T05:46:14;4.90;;;2.53;;
59374;SDS011;45172;55.006;73.460;2022-11-15T05:48:51;3.63;;;2.78;;
59374;SDS011;45172;55.006;73.460;2022-11-15T05:51:17;3.28;;;2.35;;
59374;SDS011;45172;55.006;73.460;2022-11-15T05:53:44;4.85;;;2.95;;
59374;SDS011;45172;55.006;73.460;2022-11-15T05:56:11;5.32;;;3.08;;
59374;SDS011;45172;55.006;73.460;2022-11-15T05:58:37;4.57;;;3.35;;
59374;SDS011;45172;55.006;73.460;2022-11-15T06:01:03;4.28;;;2.65;;
59374;SDS011;45172;55.006;73.460;2022-11-15T06:03:40;5.60;;;2.53;;
59374;SDS011;45172;55.006;73.460;2022-11-15T06:06:16;3.15;;;2.38;;
59374;SDS011;45172;55.006;73.460;2022-11-15T06:08:51;7.20;;;2.28;;
59374;SDS011;45172;55.006;73.460;2022-11-15T06:11:17;3.85;;;2.50;;
59374;SDS011;45172;55.006;73.460;2022-11-15T06:13:43;3.75;;;2.38;;
59374;SDS011;45172;55.006;73.460;2022-11-15T06:16:12;5.22;;;2.38;;
59374;SDS011;45172;55.006;73.460;2022-11-15T06:18:38;2.95;;;1.98;;
59374;SDS011;45172;55.006;73.460;2022-11-15T06:21:04;4.93;;;2.20;;
59374;SDS011;45172;55.006;73.460;2022-11-15T06:23:31;3.75;;;2.33;;
59374;SDS011;45172;55.006;73.460;2022-11-15T06:26:07;3.38;;;2.05;;
59374;SDS011;45172;55.006;73.460;2022-11-15T06:28:37;5.63;;;2.45;;
59374;SDS011;45172;55.006;73.460;2022-11-15T06:31:04;6.47;;;2.70;;
59374;SDS011;45172;55.006;73.460;2022-11-15T06:33:30;2.83;;;1.98;;
59374;SDS011;45172;55.006;73.460;2022-11-15T06:35:59;2.30;;;1.80;;
59374;SDS011;45172;55.006;73.460;2022-11-15T06:38:25;3.05;;;1.77;;
59374;SDS011;45172;55.006;73.460;2022-11-15T06:40:51;3.92;;;2.17;;
59374;SDS011;45172;55.006;73.460;2022-11-15T06:43:17;3.72;;;2.38;;
59374;SDS011;45172;55.006;73.460;2022-11-15T06:45:43;6.13;;;1.95;;
59374;SDS011;45172;55.006;73.460;2022-11-15T06:48:14;5.00;;;3.15;;
59374;SDS011;45172;55.006;73.460;2022-11-15T06:50:53;4.30;;;2.15;;
59374;SDS011;45172;55.006;73.460;2022-11-15T06:53:24;3.95;;;1.58;;
59374;SDS011;45172;55.006;73.460;2022-11-15T06:56:01;2.95;;;1.70;;
59374;SDS011;45172;55.006;73.460;2022-11-15T06:58:31;3.22;;;2.20;;
59374;SDS011;45172;55.006;73.460;2022-11-15T07:01:00;3.45;;;2.70;;
59374;SDS011;45172;55.006;73.460;2022-11-15T07:03:26;4.15;;;3.65;;
59374;SDS011;45172;55.006;73.460;2022-11-15T07:05:56;5.60;;;3.08;;
59374;SDS011;45172;55.006;73.460;2022-11-15T07:08:22;3.25;;;2.75;;
59374;SDS011;45172;55.006;73.460;2022-11-15T07:10:55;3.95;;;3.20;;
59374;SDS011;45172;55.006;73.460;2022-11-15T07:13:31;5.20;;;2.35;;
59374;SDS011;45172;55.006;73.460;2022-11-15T07:16:01;3.67;;;2.33;;
59374;SDS011;45172;55.006;73.460;2022-11-15T07:18:27;4.07;;;2.67;;
59374;SDS011;45172;55.006;73.460;2022-11-15T07:20:53;5.20;;;2.55;;
59374;SDS011;45172;55.006;73.460;2022-11-15T07:23:24;5.13;;;2.65;;
59374;SDS011;45172;55.006;73.460;2022-11-15T07:25:49;6.65;;;2.63;;
59374;SDS011;45172;55.006;73.460;2022-11-15T07:28:26;6.40;;;3.30;;
59374;SDS011;45172;55.006;73.460;2022-11-15T07:30:51;3.45;;;2.67;;
59374;SDS011;45172;55.006;73.460;2022-11-15T07:33:17;4.13;;;2.67;;
59374;SDS011;45172;55.006;73.460;2022-11-15T07:35:43;4.93;;;3.40;;
59374;SDS011;45172;55.006;73.460;2022-11-15T07:38:11;5.35;;;2.90;;
59374;SDS011;45172;55.006;73.460;2022-11-15T07:40:42;4.07;;;2.72;;
59374;SDS011;45172;55.006;73.460;2022-11-15T07:43:07;5.07;;;2.90;;
59374;SDS011;45172;55.006;73.460;2022-11-15T07:45:42;4.70;;;2.70;;
59374;SDS011;45172;55.006;73.460;2022-11-15T07:48:11;9.18;;;2.53;;
59374;SDS011;45172;55.006;73.460;2022-11-15T07:50:41;6.18;;;3.40;;
59374;SDS011;45172;55.006;73.460;2022-11-15T07:53:09;5.78;;;2.47;;
59374;SDS011;45172;55.006;73.460;2022-11-15T07:55:36;5.05;;;2.92;;
59374;SDS011;45172;55.006;73.460;2022-11-15T07:58:05;6.40;;;2.30;;
59374;SDS011;45172;55.006;73.460;2022-11-15T08:00:32;8.35;;;3.00;;
59374;SDS011;45172;55.006;73.460;2022-11-15T08:03:12;3.45;;;2.30;;
59374;SDS011;45172;55.006;73.460;2022-11-15T08:05:39;5.05;;;2.80;;
59374;SDS011;45172;55.006;73.460;2022-11-15T08:08:05;3.05;;;2.60;;
59374;SDS011;45172;55.006;73.460;2022-11-15T08:10:31;3.05;;;2.30;;
59374;SDS011;45172;55.006;73.460;2022-11-15T08:12:59;3.95;;;3.15;;
59374;SDS011;45172;55.006;73.460;2022-11-15T08:15:35;6.15;;;3.58;;
59374;SDS011;45172;55.006;73.460;2022-11-15T08:18:02;3.72;;;2.78;;
59374;SDS011;45172;55.006;73.460;2022-11-15T08:20:29;6.88;;;3.38;;
59374;SDS011;45172;55.006;73.460;2022-11-15T08:22:58;8.07;;;4.07;;
59374;SDS011;45172;55.006;73.460;2022-11-15T08:25:25;10.68;;;3.60;;
59374;SDS011;45172;55.006;73.460;2022-11-15T08:27:52;5.30;;;3.42;;
59374;SDS011;45172;55.006;73.460;2022-11-15T08:30:18;7.53;;;3.15;;
59374;SDS011;45172;55.006;73.460;2022-11-15T08:32:56;6.60;;;4.45;;
59374;SDS011;45172;55.006;73.460;2022-11-15T08:35:22;8.57;;;4.25;;
59374;SDS011;45172;55.006;73.460;2022-11-15T08:37:49;8.13;;;3.75;;
59374;SDS011;45172;55.006;73.460;2022-11-15T08:40:14;7.22;;;3.53;;
59374;SDS011;45172;55.006;73.460;2022-11-15T08:42:41;4.88;;;2.78;;
59374;SDS011;45172;55.006;73.460;2022-11-15T08:45:07;5.25;;;2.60;;
59374;SDS011;45172;55.006;73.460;2022-11-15T08:47:43;5.80;;;2.55;;
59374;SDS011;45172;55.006;73.460;2022-11-15T08:50:20;4.38;;;2.90;;
59374;SDS011;45172;55.006;73.460;2022-11-15T08:52:46;7.90;;;4.03;;
59374;SDS011;45172;55.006;73.460;2022-11-15T08:55:13;7.95;;;3.60;;
59374;SDS011;45172;55.006;73.460;2022-11-15T08:57:49;8.07;;;3.33;;
59374;SDS011;45172;55.006;73.460;2022-11-15T09:00:15;8.10;;;4.20;;
59374;SDS011;45172;55.006;73.460;2022-11-15T09:02:41;23.40;;;10.40;;
59374;SDS011;45172;55.006;73.460;2022-11-15T09:05:07;30.50;;;13.05;;
59374;SDS011;45172;55.006;73.460;2022-11-15T09:07:33;30.08;;;12.13;;
59374;SDS011;45172;55.006;73.460;2022-11-15T09:09:59;32.22;;;13.98;;
59374;SDS011;45172;55.006;73.460;2022-11-15T09:12:31;26.65;;;13.18;;
59374;SDS011;45172;55.006;73.460;2022-11-15T09:15:01;11.40;;;7.30;;
59374;SDS011;45172;55.006;73.460;2022-11-15T09:17:27;7.90;;;4.68;;
59374;SDS011;45172;55.006;73.460;2022-11-15T09:19:53;10.95;;;4.70;;
59374;SDS011;45172;55.006;73.460;2022-11-15T09:22:19;8.63;;;4.18;;
59374;SDS011;45172;55.006;73.460;2022-11-15T09:24:44;7.07;;;3.05;;
59374;SDS011;45172;55.006;73.460;2022-11-15T09:27:10;4.53;;;2.20;;
59374;SDS011;45172;55.006;73.460;2022-11-15T09:29:37;4.60;;;2.00;;
59374;SDS011;45172;55.006;73.460;2022-11-15T09:32:03;3.97;;;2.05;;
59374;SDS011;45172;55.006;73.460;2022-11-15T09:34:29;4.68;;;1.80;;
59374;SDS011;45172;55.006;73.460;2022-11-15T09:36:54;5.15;;;2.85;;
59374;SDS011;45172;55.006;73.460;2022-11-15T09:39:25;15.90;;;4.05;;
59374;SDS011;45172;55.006;73.460;2022-11-15T09:49:21;10.93;;;5.60;;
59374;SDS011;45172;55.006;73.460;2022-11-15T09:51:49;8.52;;;5.13;;
59374;SDS011;45172;55.006;73.460;2022-11-15T09:54:31;14.15;;;6.32;;
59374;SDS011;45172;55.006;73.460;2022-11-15T09:57:11;4.30;;;2.70;;
59374;SDS011;45172;55.006;73.460;2022-11-15T10:04:44;3.03;;;2.30;;
59374;SDS011;45172;55.006;73.460;2022-11-15T10:12:24;5.72;;;2.95;;
59374;SDS011;45172;55.006;73.460;2022-11-15T10:14:53;6.45;;;2.97;;
59374;SDS011;45172;55.006;73.460;2022-11-15T10:17:28;5.78;;;3.50;;
59374;SDS011;45172;55.006;73.460;2022-11-15T10:20:03;5.20;;;3.10;;
59374;SDS011;45172;55.006;73.460;2022-11-15T10:23:13;8.40;;;4.07;;
59374;SDS011;45172;55.006;73.460;2022-11-15T10:25:21;6.35;;;3.17;;
59374;SDS011;45172;55.006;73.460;2022-11-15T10:27:52;7.15;;;3.83;;
59374;SDS011;45172;55.006;73.460;2022-11-15T10:30:19;10.30;;;5.22;;
59374;SDS011;45172;55.006;73.460;2022-11-15T10:32:46;7.35;;;4.20;;
59374;SDS011;45172;55.006;73.460;2022-11-15T10:35:25;9.52;;;5.25;;
59374;SDS011;45172;55.006;73.460;2022-11-15T10:38:08;6.63;;;3.45;;
59374;SDS011;45172;55.006;73.460;2022-11-15T10:40:40;11.52;;;5.18;;
59374;SDS011;45172;55.006;73.460;2022-11-15T10:43:16;9.45;;;5.60;;
59374;SDS011;45172;55.006;73.460;2022-11-15T10:45:42;13.85;;;5.82;;
59374;SDS011;45172;55.006;73.460;2022-11-15T10:50:40;13.90;;;6.28;;
59374;SDS011;45172;55.006;73.460;2022-11-15T10:55:41;8.35;;;4.93;;
59374;SDS011;45172;55.006;73.460;2022-11-15T11:00:46;12.30;;;5.75;;
59374;SDS011;45172;55.006;73.460;2022-11-15T11:03:35;14.82;;;6.75;;
59374;SDS011;45172;55.006;73.460;2022-11-15T11:06:15;10.68;;;5.78;;
59374;SDS011;45172;55.006;73.460;2022-11-15T11:09:20;6.18;;;3.72;;
59374;SDS011;45172;55.006;73.460;2022-11-15T11:11:43;16.30;;;4.75;;
59374;SDS011;45172;55.006;73.460;2022-11-15T11:14:13;7.50;;;4.40;;
59374;SDS011;45172;55.006;73.460;2022-11-15T11:19:31;90.10;;;35.47;;
59374;SDS011;45172;55.006;73.460;2022-11-15T11:35:22;283.88;;;153.55;;
59374;SDS011;45172;55.006;73.460;2022-11-15T11:38:03;161.70;;;84.15;;
59374;SDS011;45172;55.006;73.460;2022-11-15T11:48:25;31.77;;;17.60;;
59374;SDS011;45172;55.006;73.460;2022-11-15T11:50:46;24.83;;;14.32;;
59374;SDS011;45172;55.006;73.460;2022-11-15T11:53:25;36.47;;;15.88;;
59374;SDS011;45172;55.006;73.460;2022-11-15T11:56:02;24.92;;;12.60;;
59374;SDS011;45172;55.006;73.460;2022-11-15T11:58:37;18.33;;;8.73;;
59374;SDS011;45172;55.006;73.460;2022-11-15T12:03:48;14.98;;;7.78;;
59374;SDS011;45172;55.006;73.460;2022-11-15T12:09:10;43.10;;;22.25;;
59374;SDS011;45172;55.006;73.460;2022-11-15T12:14:05;53.95;;;23.73;;
59374;SDS011;45172;55.006;73.460;2022-11-15T12:16:34;20.35;;;11.18;;
59374;SDS011;45172;55.006;73.460;2022-11-15T12:19:01;15.40;;;8.25;;
59374;SDS011;45172;55.006;73.460;2022-11-15T12:21:32;14.80;;;7.85;;
59374;SDS011;45172;55.006;73.460;2022-11-15T12:24:01;11.48;;;6.13;;
59374;SDS011;45172;55.006;73.460;2022-11-15T12:26:50;8.68;;;4.95;;
59374;SDS011;45172;55.006;73.460;2022-11-15T12:29:23;6.25;;;3.65;;
59374;SDS011;45172;55.006;73.460;2022-11-15T12:32:00;18.70;;;7.50;;
59374;SDS011;45172;55.006;73.460;2022-11-15T12:36:53;22.65;;;9.93;;
59374;SDS011;45172;55.006;73.460;2022-11-15T12:39:20;21.95;;;10.52;;
59374;SDS011;45172;55.006;73.460;2022-11-15T12:52:05;23.83;;;14.60;;
59374;SDS011;45172;55.006;73.460;2022-11-15T12:54:49;23.38;;;13.25;;
59374;SDS011;45172;55.006;73.460;2022-11-15T13:12:54;39.17;;;18.42;;
59374;SDS011;45172;55.006;73.460;2022-11-15T13:17:48;40.58;;;21.65;;
59374;SDS011;45172;55.006;73.460;2022-11-15T13:22:41;31.27;;;18.40;;
59374;SDS011;45172;55.006;73.460;2022-11-15T13:27:50;35.50;;;13.80;;
59374;SDS011;45172;55.006;73.460;2022-11-15T13:30:34;26.17;;;15.00;;
59374;SDS011;45172;55.006;73.460;2022-11-15T13:33:13;29.48;;;14.77;;
59374;SDS011;45172;55.006;73.460;2022-11-15T13:35:47;26.83;;;15.63;;
59374;SDS011;45172;55.006;73.460;2022-11-15T13:38:56;24.92;;;12.00;;
59374;SDS011;45172;55.006;73.460;2022-11-15T13:41:17;41.53;;;12.77;;
59374;SDS011;45172;55.006;73.460;2022-11-15T13:43:43;22.20;;;11.55;;
59374;SDS011;45172;55.006;73.460;2022-11-15T13:46:24;23.20;;;12.07;;
59374;SDS011;45172;55.006;73.460;2022-11-15T13:49:01;21.98;;;7.82;;
59374;SDS011;45172;55.006;73.460;2022-11-15T13:51:45;13.02;;;7.43;;
59374;SDS011;45172;55.006;73.460;2022-11-15T13:56:37;19.30;;;8.25;;
59374;SDS011;45172;55.006;73.460;2022-11-15T13:59:09;24.05;;;9.80;;
59374;SDS011;45172;55.006;73.460;2022-11-15T14:01:41;26.95;;;11.18;;
59374;SDS011;45172;55.006;73.460;2022-11-15T14:04:09;25.65;;;10.00;;
59374;SDS011;45172;55.006;73.460;2022-11-15T14:06:45;23.70;;;10.20;;
59374;SDS011;45172;55.006;73.460;2022-11-15T14:12:00;18.17;;;9.55;;
59374;SDS011;45172;55.006;73.460;2022-11-15T14:14:27;18.92;;;9.85;;
59374;SDS011;45172;55.006;73.460;2022-11-15T14:16:57;23.52;;;10.10;;
59374;SDS011;45172;55.006;73.460;2022-11-15T14:22:13;8.23;;;4.13;;
59374;SDS011;45172;55.006;73.460;2022-11-15T14:24:40;6.25;;;3.08;;
59374;SDS011;45172;55.006;73.460;2022-11-15T14:27:16;6.00;;;3.08;;
59374;SDS011;45172;55.006;73.460;2022-11-15T14:29:47;10.50;;;4.38;;
59374;SDS011;45172;55.006;73.460;2022-11-15T14:32:23;11.07;;;5.03;;
59374;SDS011;45172;55.006;73.460;2022-11-15T14:34:53;15.75;;;5.72;;
59374;SDS011;45172;55.006;73.460;2022-11-15T14:37:30;13.45;;;7.65;;
59374;SDS011;45172;55.006;73.460;2022-11-15T14:40:01;23.92;;;8.23;;
59374;SDS011;45172;55.006;73.460;2022-11-15T14:42:27;24.73;;;9.68;;
59374;SDS011;45172;55.006;73.460;2022-11-15T14:44:54;36.05;;;13.85;;
59374;SDS011;45172;55.006;73.460;2022-11-15T14:47:20;41.40;;;16.80;;
59374;SDS011;45172;55.006;73.460;2022-11-15T14:49:50;39.05;;;17.25;;
59374;SDS011;45172;55.006;73.460;2022-11-15T14:52:29;42.50;;;17.73;;
59374;SDS011;45172;55.006;73.460;2022-11-15T14:54:55;43.58;;;19.50;;
59374;SDS011;45172;55.006;73.460;2022-11-15T14:57:23;43.95;;;18.45;;
59374;SDS011;45172;55.006;73.460;2022-11-15T14:59:55;47.47;;;19.58;;
59374;SDS011;45172;55.006;73.460;2022-11-15T15:02:24;36.88;;;15.55;;
59374;SDS011;45172;55.006;73.460;2022-11-15T15:04:59;54.83;;;17.15;;
59374;SDS011;45172;55.006;73.460;2022-11-15T15:07:27;35.65;;;15.02;;
59374;SDS011;45172;55.006;73.460;2022-11-15T15:09:54;37.80;;;15.95;;
59374;SDS011;45172;55.006;73.460;2022-11-15T15:12:21;40.60;;;15.77;;
59374;SDS011;45172;55.006;73.460;2022-11-15T15:14:52;31.50;;;13.40;;
59374;SDS011;45172;55.006;73.460;2022-11-15T15:17:18;17.88;;;7.60;;
59374;SDS011;45172;55.006;73.460;2022-11-15T15:19:48;18.40;;;8.10;;
59374;SDS011;45172;55.006;73.460;2022-11-15T15:22:15;14.73;;;6.78;;
59374;SDS011;45172;55.006;73.460;2022-11-15T15:24:45;13.85;;;6.85;;
59374;SDS011;45172;55.006;73.460;2022-11-15T15:27:11;16.65;;;7.88;;
59374;SDS011;45172;55.006;73.460;2022-11-15T15:29:37;11.80;;;6.53;;
59374;SDS011;45172;55.006;73.460;2022-11-15T15:32:03;9.32;;;5.60;;
59374;SDS011;45172;55.006;73.460;2022-11-15T15:34:29;8.73;;;4.82;;
59374;SDS011;45172;55.006;73.460;2022-11-15T15:39:43;9.15;;;5.35;;
59374;SDS011;45172;55.006;73.460;2022-11-15T15:42:13;12.10;;;4.82;;
59374;SDS011;45172;55.006;73.460;2022-11-15T15:44:50;14.80;;;5.97;;
59374;SDS011;45172;55.006;73.460;2022-11-15T15:47:26;14.55;;;7.63;;
59374;SDS011;45172;55.006;73.460;2022-11-15T15:49:52;21.67;;;8.38;;
59374;SDS011;45172;55.006;73.460;2022-11-15T15:52:25;20.08;;;8.13;;
59374;SDS011;45172;55.006;73.460;2022-11-15T15:55:01;11.23;;;4.97;;
59374;SDS011;45172;55.006;73.460;2022-11-15T15:57:33;7.28;;;3.97;;
59374;SDS011;45172;55.006;73.460;2022-11-15T16:00:04;7.43;;;4.03;;
59374;SDS011;45172;55.006;73.460;2022-11-15T16:02:40;5.88;;;3.72;;
59374;SDS011;45172;55.006;73.460;2022-11-15T16:05:06;5.35;;;2.97;;
59374;SDS011;45172;55.006;73.460;2022-11-15T16:07:43;5.20;;;2.60;;
59374;SDS011;45172;55.006;73.460;2022-11-15T16:10:20;5.68;;;2.20;;
59374;SDS011;45172;55.006;73.460;2022-11-15T16:12:46;5.18;;;2.60;;
59374;SDS011;45172;55.006;73.460;2022-11-15T16:15:12;5.93;;;2.35;;
59374;SDS011;45172;55.006;73.460;2022-11-15T16:17:38;5.35;;;1.88;;
59374;SDS011;45172;55.006;73.460;2022-11-15T16:20:05;4.93;;;2.50;;
59374;SDS011;45172;55.006;73.460;2022-11-15T16:22:31;6.07;;;2.90;;
59374;SDS011;45172;55.006;73.460;2022-11-15T16:25:02;3.05;;;2.03;;
59374;SDS011;45172;55.006;73.460;2022-11-15T16:27:38;7.40;;;2.85;;
59374;SDS011;45172;55.006;73.460;2022-11-15T16:30:12;4.15;;;2.00;;
59374;SDS011;45172;55.006;73.460;2022-11-15T16:32:39;3.33;;;2.10;;
59374;SDS011;45172;55.006;73.460;2022-11-15T16:35:07;6.47;;;1.98;;
59374;SDS011;45172;55.006;73.460;2022-11-15T16:37:33;5.85;;;1.70;;
59374;SDS011;45172;55.006;73.460;2022-11-15T16:40:04;4.32;;;2.08;;
59374;SDS011;45172;55.006;73.460;2022-11-15T16:42:30;1.67;;;1.40;;
59374;SDS011;45172;55.006;73.460;2022-11-15T16:45:07;3.17;;;1.60;;
59374;SDS011;45172;55.006;73.460;2022-11-15T16:47:36;4.43;;;2.00;;
59374;SDS011;45172;55.006;73.460;2022-11-15T16:50:09;3.28;;;1.15;;
59374;SDS011;45172;55.006;73.460;2022-11-15T16:52:36;3.10;;;1.38;;
59374;SDS011;45172;55.006;73.460;2022-11-15T16:55:01;3.97;;;1.80;;
59374;SDS011;45172;55.006;73.460;2022-11-15T16:57:27;3.47;;;1.70;;
59374;SDS011;45172;55.006;73.460;2022-11-15T16:59:54;3.25;;;1.85;;
59374;SDS011;45172;55.006;73.460;2022-11-15T17:02:19;1.70;;;1.20;;
59374;SDS011;45172;55.006;73.460;2022-11-15T17:04:45;3.88;;;1.65;;
59374;SDS011;45172;55.006;73.460;2022-11-15T17:07:11;1.80;;;1.30;;